Time;durP1;ratioP1;P1;durP2;ratioP2;P2;SDS_P1;SDS_P2;PMS_P1;PMS_P2;Temp;Humidity;BMP_temperature;BMP_pressure;BME280_temperature;BME280_humidity;BME280_pressure;Samples;Min_cycle;Max_cycle;Signal;HPM_P1;HPM_P2
2021/04/09 00:00:22;;;;;;;14.13;7.10;;;3.90;99.90;;;;;;5094382;28;20177;-70
2021/04/09 00:02:48;;;;;;;11.57;6.65;;;4.00;99.90;;;;;;5094420;28;20278;-70
2021/04/09 00:05:17;;;;;;;13.98;6.18;;;3.90;99.90;;;;;;5094154;28;20207;-69
2021/04/09 00:07:43;;;;;;;12.07;6.60;;;4.00;99.90;;;;;;5094077;28;20297;-69
2021/04/09 00:10:09;;;;;;;6.83;5.57;;;4.00;99.90;;;;;;5094138;28;20259;-70
2021/04/09 00:12:36;;;;;;;10.82;6.10;;;4.00;99.90;;;;;;5094257;28;20187;-70
2021/04/09 00:15:03;;;;;;;12.77;5.78;;;4.00;99.90;;;;;;5094025;28;20611;-70
2021/04/09 00:17:28;;;;;;;9.73;5.82;;;4.00;99.90;;;;;;5093864;28;20172;-69
2021/04/09 00:19:54;;;;;;;11.73;5.80;;;4.10;99.90;;;;;;5094010;28;20282;-70
2021/04/09 00:22:19;;;;;;;18.87;6.80;;;3.90;99.90;;;;;;5093865;28;20194;-70
2021/04/09 00:24:45;;;;;;;10.93;6.10;;;4.10;99.90;;;;;;5093480;28;20222;-69
2021/04/09 00:27:10;;;;;;;8.43;4.83;;;4.20;99.90;;;;;;5093811;28;20167;-70
2021/04/09 00:29:36;;;;;;;9.70;6.07;;;4.20;99.90;;;;;;5093841;28;20224;-70
2021/04/09 00:32:02;;;;;;;11.73;5.97;;;4.10;99.90;;;;;;5093777;28;20171;-70
2021/04/09 00:34:27;;;;;;;9.47;5.37;;;4.20;99.90;;;;;;5093646;28;20188;-69
2021/04/09 00:36:53;;;;;;;7.03;4.83;;;4.10;99.90;;;;;;5093797;28;20175;-69
2021/04/09 00:39:18;;;;;;;8.60;4.63;;;4.30;99.90;;;;;;5093601;28;20251;-70
2021/04/09 00:41:44;;;;;;;13.40;5.10;;;4.30;99.90;;;;;;5093583;28;20696;-69
2021/04/09 00:44:12;;;;;;;10.50;5.70;;;4.30;99.90;;;;;;5093682;28;20241;-70
2021/04/09 00:46:39;;;;;;;8.18;5.47;;;4.30;99.90;;;;;;5093605;28;20174;-70
2021/04/09 00:49:05;;;;;;;15.50;5.35;;;4.40;99.90;;;;;;5093464;28;20163;-69
2021/04/09 00:51:32;;;;;;;16.60;5.47;;;4.40;99.90;;;;;;5093470;28;20171;-69
2021/04/09 00:53:59;;;;;;;8.75;4.80;;;4.40;99.90;;;;;;5092027;28;20234;-70
2021/04/09 00:56:28;;;;;;;9.00;4.88;;;4.30;99.90;;;;;;5093462;28;20536;-70
2021/04/09 00:58:59;;;;;;;12.35;5.15;;;4.30;99.90;;;;;;5093741;28;20171;-70
2021/04/09 01:01:26;;;;;;;12.38;5.72;;;4.30;99.90;;;;;;5093418;28;20183;-69
2021/04/09 01:03:53;;;;;;;8.52;5.25;;;4.30;99.90;;;;;;5093150;28;20560;-70
2021/04/09 01:06:19;;;;;;;7.50;4.07;;;4.30;99.90;;;;;;5093203;28;20644;-69
2021/04/09 01:08:45;;;;;;;7.20;5.10;;;4.60;99.90;;;;;;5093043;28;20187;-70
2021/04/09 01:11:11;;;;;;;10.68;5.20;;;4.60;99.90;;;;;;5093267;28;20663;-70
2021/04/09 01:13:36;;;;;;;7.37;3.90;;;4.60;99.90;;;;;;5093216;28;20195;-70
2021/04/09 01:16:06;;;;;;;9.60;4.80;;;4.60;99.90;;;;;;5093171;28;20536;-70
2021/04/09 01:18:42;;;;;;;8.82;4.97;;;4.90;99.90;;;;;;5091813;28;20171;-69
2021/04/09 01:21:29;;;;;;;9.73;4.95;;;4.80;99.90;;;;;;5093083;28;20164;-69
2021/04/09 01:24:09;;;;;;;7.40;4.60;;;4.60;99.90;;;;;;5093136;28;20199;-69
2021/04/09 01:26:54;;;;;;;6.43;4.38;;;4.70;99.90;;;;;;5093086;28;20170;-70
2021/04/09 01:29:30;;;;;;;6.20;3.92;;;4.80;99.90;;;;;;5093240;28;20217;-69
2021/04/09 01:32:02;;;;;;;11.75;4.80;;;4.70;99.90;;;;;;5092964;28;20151;-70
2021/04/09 01:34:43;;;;;;;6.18;4.65;;;4.60;99.90;;;;;;5092890;28;20244;-70
2021/04/09 01:37:24;;;;;;;4.28;3.88;;;4.80;99.90;;;;;;5097109;28;20531;-69
2021/04/09 01:39:57;;;;;;;8.38;4.40;;;4.80;99.90;;;;;;5097354;28;20204;-69
2021/04/09 01:42:24;;;;;;;11.32;4.25;;;4.60;99.90;;;;;;5097279;28;20187;-69
2021/04/09 01:44:51;;;;;;;7.93;4.35;;;4.60;99.90;;;;;;5097181;28;20203;-70
2021/04/09 01:47:24;;;;;;;7.25;4.97;;;4.60;99.90;;;;;;5096951;28;20695;-70
2021/04/09 01:49:55;;;;;;;8.02;5.22;;;4.80;99.90;;;;;;5097157;28;20190;-70
2021/04/09 01:52:23;;;;;;;8.05;5.13;;;4.80;99.90;;;;;;5097068;28;20148;-70
2021/04/09 01:54:49;;;;;;;10.55;4.50;;;4.70;99.90;;;;;;5097001;28;20174;-70
2021/04/09 01:57:19;;;;;;;8.10;4.40;;;4.60;99.90;;;;;;5096730;28;20171;-70
2021/04/09 01:59:46;;;;;;;7.05;4.45;;;4.60;99.90;;;;;;5096958;28;20174;-69
2021/04/09 02:02:14;;;;;;;5.60;3.95;;;4.90;99.90;;;;;;5095261;28;20175;-70
2021/04/09 02:04:40;;;;;;;11.07;5.75;;;4.80;99.90;;;;;;5096384;28;20187;-69
2021/04/09 02:07:06;;;;;;;8.30;4.27;;;4.70;99.90;;;;;;5096559;28;20221;-70
2021/04/09 02:09:32;;;;;;;8.30;4.90;;;4.80;99.90;;;;;;5096798;28;20386;-70
2021/04/09 02:12:00;;;;;;;13.20;5.13;;;4.70;99.90;;;;;;5096735;28;20194;-70
2021/04/09 02:14:27;;;;;;;9.00;4.72;;;4.60;99.90;;;;;;5096349;28;20195;-70
2021/04/09 02:16:54;;;;;;;8.55;4.90;;;4.70;99.90;;;;;;5096611;28;20172;-70
2021/04/09 02:19:23;;;;;;;6.90;5.20;;;4.60;99.90;;;;;;5096345;28;20163;-70
2021/04/09 02:21:49;;;;;;;9.45;5.03;;;4.40;99.90;;;;;;5096286;28;20263;-70
2021/04/09 02:24:14;;;;;;;9.30;5.43;;;4.40;99.90;;;;;;5096085;28;20616;-70
2021/04/09 02:26:40;;;;;;;11.20;4.97;;;4.60;99.90;;;;;;5096435;28;20199;-69
2021/04/09 02:29:06;;;;;;;8.63;5.00;;;4.70;99.90;;;;;;5094879;28;20260;-69
2021/04/09 02:31:32;;;;;;;8.10;5.03;;;4.50;99.90;;;;;;5096090;28;20221;-69
2021/04/09 02:33:58;;;;;;;8.82;4.72;;;4.60;99.90;;;;;;5095984;28;20672;-69
2021/04/09 02:36:26;;;;;;;6.47;5.10;;;4.80;99.90;;;;;;5096192;28;20249;-69
2021/04/09 02:39:05;;;;;;;7.25;4.70;;;4.90;99.90;;;;;;5095950;28;20663;-69
2021/04/09 02:41:36;;;;;;;8.65;5.90;;;4.70;99.90;;;;;;5096222;28;20216;-69
2021/04/09 02:44:03;;;;;;;13.38;5.20;;;4.70;99.90;;;;;;5095749;28;20726;-68
2021/04/09 02:46:41;;;;;;;12.40;5.85;;;5.10;99.90;;;;;;5094928;28;20666;-69
2021/04/09 02:49:13;;;;;;;9.65;5.65;;;5.30;99.90;;;;;;5095850;28;20148;-69
2021/04/09 02:51:41;;;;;;;9.32;5.30;;;5.20;99.90;;;;;;5096280;28;20197;-69
2021/04/09 02:54:10;;;;;;;15.02;5.72;;;5.30;99.90;;;;;;5095597;28;20195;-70
2021/04/09 02:56:38;;;;;;;5.95;4.43;;;5.30;99.90;;;;;;5095577;28;20163;-69
2021/04/09 02:59:06;;;;;;;8.57;5.28;;;5.30;99.90;;;;;;5096128;28;20194;-69
2021/04/09 03:01:32;;;;;;;9.95;4.93;;;5.40;99.90;;;;;;5095428;28;20167;-69
2021/04/09 03:03:58;;;;;;;9.25;5.22;;;5.30;99.90;;;;;;5095266;28;20287;-69
2021/04/09 03:06:24;;;;;;;10.18;5.32;;;5.50;99.90;;;;;;5095727;28;20165;-69
2021/04/09 03:08:50;;;;;;;7.13;5.20;;;5.50;99.90;;;;;;5095349;28;20183;-69
2021/04/09 03:11:16;;;;;;;8.63;5.63;;;5.40;99.90;;;;;;5095334;28;20164;-69
2021/04/09 03:13:41;;;;;;;8.67;4.63;;;5.30;99.90;;;;;;5095316;28;20263;-69
2021/04/09 03:16:09;;;;;;;6.10;4.47;;;5.30;99.90;;;;;;5095510;28;20167;-69
2021/04/09 03:18:38;;;;;;;10.07;5.82;;;5.20;99.90;;;;;;5095162;28;20179;-69
2021/04/09 03:21:04;;;;;;;14.77;4.85;;;5.00;99.90;;;;;;5095195;28;20188;-69
2021/04/09 03:23:30;;;;;;;15.98;5.45;;;5.10;99.90;;;;;;5094909;28;20183;-69
2021/04/09 03:25:56;;;;;;;7.20;5.60;;;5.10;99.90;;;;;;5095270;28;20172;-70
2021/04/09 03:28:21;;;;;;;7.00;5.27;;;5.20;99.90;;;;;;5095168;28;20175;-69
2021/04/09 03:30:49;;;;;;;14.57;6.03;;;5.10;99.90;;;;;;5094968;28;20198;-69
2021/04/09 03:33:17;;;;;;;8.40;5.57;;;5.10;99.90;;;;;;5094862;28;20184;-69
2021/04/09 03:35:43;;;;;;;9.02;4.65;;;5.00;99.90;;;;;;5094817;28;20240;-69
2021/04/09 03:38:08;;;;;;;7.37;5.07;;;5.10;99.90;;;;;;5095711;28;20205;-69
2021/04/09 03:40:34;;;;;;;11.80;5.03;;;5.30;99.90;;;;;;5094959;28;20229;-69
2021/04/09 03:42:59;;;;;;;9.50;5.07;;;5.20;99.90;;;;;;5094952;28;20195;-69
2021/04/09 03:45:25;;;;;;;12.50;4.87;;;5.20;99.90;;;;;;5094727;28;20199;-69
2021/04/09 03:47:51;;;;;;;12.00;5.70;;;5.10;99.90;;;;;;5094677;28;20173;-70
2021/04/09 03:50:16;;;;;;;9.10;5.60;;;5.10;99.90;;;;;;5094449;28;20178;-69
2021/04/09 03:52:42;;;;;;;10.20;5.13;;;5.30;99.90;;;;;;5094678;28;20194;-69
2021/04/09 03:55:12;;;;;;;9.83;5.97;;;5.40;99.90;;;;;;5094427;28;20183;-69
2021/04/09 03:57:37;;;;;;;13.93;5.50;;;5.20;99.90;;;;;;5094819;28;20210;-69
2021/04/09 04:00:05;;;;;;;13.47;5.30;;;5.40;99.90;;;;;;5094342;28;20202;-69
2021/04/09 04:02:30;;;;;;;10.02;5.95;;;5.20;99.90;;;;;;5094200;28;20587;-69
2021/04/09 04:04:56;;;;;;;9.63;5.60;;;5.30;99.90;;;;;;5094220;28;20315;-69
2021/04/09 04:07:22;;;;;;;9.25;5.45;;;5.40;99.90;;;;;;5094139;28;20214;-69
2021/04/09 04:09:48;;;;;;;15.40;6.10;;;5.40;99.90;;;;;;5094295;28;20591;-69
2021/04/09 04:12:13;;;;;;;7.87;5.70;;;5.40;99.90;;;;;;5094096;28;20229;-69
2021/04/09 04:14:39;;;;;;;8.90;5.40;;;5.50;99.90;;;;;;5094113;28;20170;-69
2021/04/09 04:17:04;;;;;;;12.93;6.00;;;5.40;99.90;;;;;;5094442;28;20202;-69
2021/04/09 04:19:30;;;;;;;9.10;5.70;;;5.60;99.90;;;;;;5094031;28;20212;-70
2021/04/09 04:21:55;;;;;;;7.30;5.17;;;5.50;99.90;;;;;;5093964;28;20167;-69
2021/04/09 04:24:21;;;;;;;10.67;5.60;;;5.70;99.90;;;;;;5093758;28;20347;-70
2021/04/09 04:26:46;;;;;;;7.53;4.67;;;5.60;99.90;;;;;;5094108;28;20168;-70
2021/04/09 04:29:12;;;;;;;9.77;5.30;;;5.50;99.90;;;;;;5093818;28;20170;-70
2021/04/09 04:31:37;;;;;;;8.40;5.50;;;5.40;99.90;;;;;;5093737;28;20171;-70
2021/04/09 04:34:03;;;;;;;17.53;6.20;;;5.60;99.90;;;;;;5092391;28;20700;-70
2021/04/09 04:36:28;;;;;;;9.47;5.20;;;5.70;99.90;;;;;;5093602;28;20171;-70
2021/04/09 04:38:54;;;;;;;10.07;5.53;;;5.70;99.90;;;;;;5093606;28;20160;-70
2021/04/09 04:41:20;;;;;;;9.17;5.83;;;5.90;99.90;;;;;;5093607;28;20163;-70
2021/04/09 04:43:45;;;;;;;10.73;6.03;;;5.90;99.90;;;;;;5093467;28;20193;-70
2021/04/09 04:46:11;;;;;;;8.03;5.17;;;5.80;99.90;;;;;;5093203;28;20429;-70
2021/04/09 04:48:37;;;;;;;11.63;7.03;;;5.70;99.90;;;;;;5093297;28;20221;-70
2021/04/09 04:51:03;;;;;;;12.53;6.33;;;5.80;99.90;;;;;;5093240;28;20167;-70
2021/04/09 04:53:28;;;;;;;9.40;5.20;;;5.80;99.90;;;;;;5093116;28;20195;-70
2021/04/09 04:55:54;;;;;;;9.10;5.80;;;5.80;99.90;;;;;;5093592;28;20388;-70
2021/04/09 04:58:20;;;;;;;9.10;5.47;;;5.90;99.90;;;;;;5093209;28;20172;-70
2021/04/09 05:00:45;;;;;;;7.63;5.13;;;5.90;99.90;;;;;;5092266;28;20454;-70
2021/04/09 05:03:11;;;;;;;11.50;6.47;;;6.00;99.90;;;;;;5093507;28;20684;-70
2021/04/09 05:05:36;;;;;;;8.63;6.73;;;6.00;99.90;;;;;;5093345;28;20232;-70
2021/04/09 05:08:02;;;;;;;12.20;5.63;;;6.10;99.90;;;;;;5092943;28;20651;-69
2021/04/09 05:10:28;;;;;;;9.90;5.63;;;5.90;99.90;;;;;;5091397;28;20175;-70
2021/04/09 05:12:53;;;;;;;19.13;6.10;;;6.00;99.90;;;;;;5093191;28;20183;-70
2021/04/09 05:15:19;;;;;;;7.10;4.77;;;6.10;99.90;;;;;;5093077;28;20541;-70
2021/04/09 05:17:44;;;;;;;7.47;5.77;;;6.20;99.90;;;;;;5092940;28;20697;-70
2021/04/09 05:20:10;;;;;;;8.50;6.40;;;6.20;99.90;;;;;;5092933;28;20229;-69
2021/04/09 05:22:36;;;;;;;16.70;5.93;;;6.10;99.90;;;;;;5092890;28;20249;-70
2021/04/09 05:25:02;;;;;;;10.70;6.50;;;6.10;99.90;;;;;;5093069;28;20424;-70
2021/04/09 05:27:27;;;;;;;10.05;5.70;;;6.20;99.90;;;;;;5093169;28;20171;-70
2021/04/09 05:29:53;;;;;;;11.60;5.27;;;6.20;99.90;;;;;;5092946;28;20220;-70
2021/04/09 05:32:19;;;;;;;15.03;6.23;;;6.30;99.90;;;;;;5092827;28;20199;-70
2021/04/09 05:34:44;;;;;;;24.20;12.17;;;6.10;99.90;;;;;;5092819;28;20174;-70
2021/04/09 05:37:10;;;;;;;15.90;7.77;;;6.30;99.90;;;;;;5092757;28;20551;-70
2021/04/09 05:39:39;;;;;;;10.33;6.90;;;6.50;99.90;;;;;;5091398;28;20175;-70
2021/04/09 05:42:05;;;;;;;16.75;6.95;;;6.50;99.90;;;;;;5092831;28;20528;-69
2021/04/09 05:44:33;;;;;;;11.82;7.15;;;6.30;99.90;;;;;;5092721;28;20245;-69
2021/04/09 05:47:00;;;;;;;9.15;5.50;;;6.20;99.90;;;;;;5092591;28;20530;-69
2021/04/09 05:49:26;;;;;;;7.85;6.13;;;6.40;99.90;;;;;;5093154;28;20528;-69
2021/04/09 05:51:51;;;;;;;9.80;5.33;;;6.50;99.90;;;;;;5092740;28;20164;-69
2021/04/09 05:54:17;;;;;;;10.77;6.07;;;6.60;99.90;;;;;;5092543;28;20196;-69
2021/04/09 05:56:42;;;;;;;13.60;5.97;;;6.60;99.90;;;;;;5092932;28;20186;-69
2021/04/09 05:59:08;;;;;;;8.60;5.67;;;6.60;99.90;;;;;;5092401;28;20640;-69
2021/04/09 06:01:34;;;;;;;15.80;7.67;;;6.60;99.90;;;;;;5092870;28;20188;-69
2021/04/09 06:03:59;;;;;;;11.70;5.83;;;6.70;99.90;;;;;;5092052;28;20226;-69
2021/04/09 06:06:25;;;;;;;9.90;5.97;;;6.80;99.90;;;;;;5092773;28;20168;-69
2021/04/09 06:08:50;;;;;;;19.80;6.60;;;6.90;99.90;;;;;;5092230;28;20187;-69
2021/04/09 06:11:16;;;;;;;10.47;5.20;;;6.90;99.90;;;;;;5092436;28;20271;-69
2021/04/09 06:13:42;;;;;;;8.20;5.37;;;6.90;99.90;;;;;;5092125;28;20192;-70
2021/04/09 06:16:07;;;;;;;10.13;6.30;;;6.70;99.90;;;;;;5090978;28;20175;-69
2021/04/09 06:18:33;;;;;;;12.57;6.00;;;6.80;99.90;;;;;;5092287;28;20168;-69
2021/04/09 06:20:59;;;;;;;12.23;6.13;;;7.00;99.90;;;;;;5092042;28;20274;-69
2021/04/09 06:23:24;;;;;;;15.00;7.47;;;6.70;99.90;;;;;;5095327;28;20429;-69
2021/04/09 06:25:50;;;;;;;17.03;8.53;;;6.80;99.90;;;;;;5096242;28;20191;-68
2021/04/09 06:28:15;;;;;;;9.83;6.57;;;6.70;99.90;;;;;;5095734;28;20168;-69
2021/04/09 06:30:41;;;;;;;10.30;6.80;;;6.80;99.90;;;;;;5095549;28;20164;-69
2021/04/09 06:33:07;;;;;;;15.53;8.03;;;6.90;99.90;;;;;;5095536;28;20187;-69
2021/04/09 06:35:33;;;;;;;14.93;7.27;;;6.90;99.90;;;;;;5096039;28;20437;-70
2021/04/09 06:37:58;;;;;;;18.47;7.77;;;7.10;99.90;;;;;;5095715;28;20199;-69
2021/04/09 06:40:26;;;;;;;10.83;7.67;;;6.90;99.90;;;;;;5096549;28;20171;-69
2021/04/09 06:42:58;;;;;;;12.95;6.72;;;7.00;99.90;;;;;;5095816;28;20601;-70
2021/04/09 06:45:25;;;;;;;12.45;6.90;;;7.10;99.90;;;;;;5095386;28;20279;-70
2021/04/09 06:47:53;;;;;;;11.15;6.07;;;7.10;99.90;;;;;;5095561;28;20183;-70
2021/04/09 06:50:19;;;;;;;11.65;5.85;;;7.20;99.90;;;;;;5095788;28;20644;-70
2021/04/09 06:52:45;;;;;;;12.00;7.00;;;7.20;99.90;;;;;;5095552;28;20189;-72
2021/04/09 06:55:11;;;;;;;8.40;5.90;;;7.20;99.90;;;;;;5095475;28;20251;-70
2021/04/09 06:57:39;;;;;;;7.70;5.40;;;7.40;99.90;;;;;;5095527;28;20826;-70
2021/04/09 07:00:10;;;;;;;10.48;6.13;;;7.50;99.90;;;;;;5095442;28;20244;-70
2021/04/09 07:02:36;;;;;;;12.07;6.10;;;7.30;99.90;;;;;;5095082;28;20225;-69
2021/04/09 07:05:03;;;;;;;14.10;6.10;;;7.70;99.90;;;;;;5094884;28;20197;-69
2021/04/09 07:07:29;;;;;;;10.77;5.75;;;7.60;99.90;;;;;;5095129;28;20718;-70
2021/04/09 07:09:54;;;;;;;8.10;4.97;;;7.50;99.90;;;;;;5095610;28;20221;-69
2021/04/09 07:12:28;;;;;;;11.00;5.70;;;7.60;99.90;;;;;;5095534;28;20164;-69
2021/04/09 07:14:56;;;;;;;11.20;5.90;;;7.70;99.90;;;;;;5095244;28;20156;-69
2021/04/09 07:17:29;;;;;;;11.35;6.00;;;7.80;99.90;;;;;;5095121;28;20194;-69
2021/04/09 07:20:20;;;;;;;13.63;7.28;;;7.90;99.90;;;;;;5095238;28;20521;-70
2021/04/09 07:22:53;;;;;;;10.70;6.32;;;8.10;99.90;;;;;;5094885;28;20278;-69
2021/04/09 07:25:43;;;;;;;12.00;6.80;;;8.20;99.90;;;;;;5095522;28;20274;-69
2021/04/09 07:28:11;;;;;;;10.95;6.32;;;8.30;99.90;;;;;;5083874;28;20184;-70
2021/04/09 07:30:38;;;;;;;10.73;5.72;;;8.40;99.90;;;;;;5093238;28;20175;-68
2021/04/09 07:33:07;;;;;;;9.70;5.70;;;8.40;99.90;;;;;;5092935;28;20282;-69
2021/04/09 07:35:52;;;;;;;10.68;5.30;;;8.40;99.90;;;;;;5094546;28;20163;-69
2021/04/09 07:38:18;;;;;;;8.15;5.70;;;8.50;99.90;;;;;;5094465;28;20167;-70
2021/04/09 07:41:00;;;;;;;11.07;5.60;;;8.70;99.90;;;;;;5094542;28;20170;-69
2021/04/09 07:43:30;;;;;;;10.68;5.45;;;8.60;99.90;;;;;;5093223;28;20199;-69
2021/04/09 07:45:59;;;;;;;9.43;5.95;;;8.80;99.90;;;;;;5094383;28;20195;-69
2021/04/09 07:48:38;;;;;;;19.48;5.95;;;8.80;99.90;;;;;;5093065;28;20513;-69
2021/04/09 07:51:06;;;;;;;10.80;6.50;;;8.90;99.90;;;;;;5094240;28;20161;-69
2021/04/09 07:53:32;;;;;;;10.65;6.85;;;9.00;99.90;;;;;;5094075;28;20603;-69
2021/04/09 07:56:08;;;;;;;12.03;5.50;;;9.00;99.90;;;;;;5093891;28;20229;-69
2021/04/09 07:58:35;;;;;;;15.73;6.13;;;9.00;99.90;;;;;;5094144;28;20159;-69
2021/04/09 08:01:01;;;;;;;9.68;6.03;;;9.10;99.90;;;;;;5094125;28;20247;-69
2021/04/09 08:03:30;;;;;;;14.18;6.25;;;9.10;99.90;;;;;;5093707;28;20604;-69
2021/04/09 08:06:06;;;;;;;12.50;6.53;;;9.20;99.90;;;;;;5093912;28;20196;-69
2021/04/09 08:08:31;;;;;;;9.77;5.35;;;9.40;99.90;;;;;;5093662;28;20183;-68
2021/04/09 08:11:28;;;;;;;11.70;6.27;;;9.40;99.90;;;;;;5092600;28;20168;-69
2021/04/09 08:14:14;;;;;;;10.38;6.40;;;9.50;99.90;;;;;;5094153;28;20278;-68
2021/04/09 08:16:41;;;;;;;11.10;6.10;;;9.60;99.90;;;;;;5093714;28;20240;-69
2021/04/09 08:19:12;;;;;;;10.90;7.07;;;9.60;99.90;;;;;;5094064;28;20280;-69
2021/04/09 08:21:52;;;;;;;8.27;6.57;;;9.70;99.90;;;;;;5093818;28;20521;-70
2021/04/09 08:24:23;;;;;;;10.97;6.57;;;9.70;99.90;;;;;;5093625;28;20813;-69
2021/04/09 08:26:49;;;;;;;15.23;6.13;;;9.90;99.90;;;;;;5094083;28;20409;-68
2021/04/09 08:29:16;;;;;;;14.03;5.97;;;9.90;99.90;;;;;;5093402;28;20489;-69
2021/04/09 08:31:42;;;;;;;8.67;5.60;;;10.00;99.90;;;;;;5093438;28;20412;-69
2021/04/09 08:34:10;;;;;;;7.55;5.18;;;10.00;99.90;;;;;;5093813;28;20515;-69
2021/04/09 08:36:44;;;;;;;10.17;5.50;;;10.10;99.90;;;;;;5093594;28;20258;-70
2021/04/09 08:39:12;;;;;;;13.10;6.13;;;10.10;99.90;;;;;;5093838;28;20357;-70
2021/04/09 08:41:38;;;;;;;14.93;6.33;;;10.30;99.90;;;;;;5093380;28;20775;-70
2021/04/09 08:44:07;;;;;;;8.50;5.97;;;10.50;99.90;;;;;;5093068;28;20461;-69
2021/04/09 08:46:32;;;;;;;8.10;6.17;;;10.60;99.90;;;;;;5092843;28;20454;-70
2021/04/09 08:48:59;;;;;;;10.07;5.77;;;10.80;99.90;;;;;;5093207;28;20872;-70
2021/04/09 08:51:26;;;;;;;11.23;6.50;;;11.00;99.90;;;;;;5093513;28;20654;-69
2021/04/09 08:53:52;;;;;;;12.10;6.40;;;11.00;99.90;;;;;;5093144;28;21042;-69
2021/04/09 08:56:35;;;;;;;15.87;6.67;;;11.30;99.90;;;;;;5091879;28;20380;-70
2021/04/09 08:59:01;;;;;;;11.50;6.27;;;11.40;99.90;;;;;;5093259;28;20402;-70
2021/04/09 09:01:27;;;;;;;12.07;6.80;;;11.60;99.90;;;;;;5092817;28;20416;-70
2021/04/09 09:03:53;;;;;;;11.47;6.87;;;11.80;99.90;;;;;;5092704;28;20953;-70
2021/04/09 09:06:42;;;;;;;7.83;5.20;;;11.50;99.90;;;;;;5093103;28;20421;-70
2021/04/09 09:09:08;;;;;;;11.50;5.00;;;11.20;99.90;;;;;;5092543;28;20266;-70
2021/04/09 09:11:54;;;;;;;8.20;6.13;;;11.60;99.90;;;;;;5092894;28;20393;-70
2021/04/09 09:14:39;;;;;;;8.60;6.47;;;12.00;99.90;;;;;;5092711;28;20627;-70
2021/04/09 09:17:16;;;;;;;13.43;6.00;;;12.10;99.90;;;;;;5092635;28;20405;-70
2021/04/09 09:19:42;;;;;;;7.33;5.10;;;12.20;99.90;;;;;;5092821;28;20497;-70
2021/04/09 09:22:12;;;;;;;16.10;6.30;;;11.90;99.90;;;;;;5092564;28;20918;-70
2021/04/09 09:25:04;;;;;;;9.73;6.13;;;11.90;99.90;;;;;;5092667;28;20194;-70
2021/04/09 09:27:49;;;;;;;10.10;5.67;;;12.30;99.90;;;;;;5093132;28;20401;-70
2021/04/09 09:30:37;;;;;;;11.63;5.60;;;12.00;99.90;;;;;;5092645;28;20397;-70
2021/04/09 09:33:26;;;;;;;10.97;5.27;;;12.20;99.90;;;;;;5092765;28;20409;-70
2021/04/09 09:35:55;;;;;;;11.80;5.97;;;12.30;99.90;;;;;;5092702;28;20455;-70
2021/04/09 09:38:47;;;;;;;7.43;5.13;;;12.20;99.90;;;;;;5092614;28;20502;-71
2021/04/09 09:41:31;;;;;;;11.77;5.70;;;12.30;99.90;;;;;;5092527;28;20494;-70
2021/04/09 09:43:56;;;;;;;10.63;5.23;;;12.20;99.90;;;;;;5092408;28;20431;-70
2021/04/09 09:46:51;;;;;;;7.17;5.20;;;12.20;99.90;;;;;;5092620;28;20402;-69
2021/04/09 09:49:17;;;;;;;10.00;4.70;;;12.20;99.90;;;;;;5092495;28;20509;-70
2021/04/09 09:51:43;;;;;;;10.43;6.57;;;12.50;99.90;;;;;;5092796;28;20827;-70
2021/04/09 09:54:09;;;;;;;10.27;5.80;;;12.80;99.90;;;;;;5092665;28;20425;-70
2021/04/09 09:56:34;;;;;;;9.37;5.67;;;13.10;99.90;;;;;;5094054;28;20254;-70
2021/04/09 09:59:00;;;;;;;11.63;6.20;;;12.90;99.90;;;;;;5096693;28;20164;-70
2021/04/09 10:01:26;;;;;;;10.80;5.33;;;13.00;99.90;;;;;;5096796;28;20255;-70
2021/04/09 10:03:52;;;;;;;7.87;5.37;;;13.20;99.90;;;;;;5096350;28;20194;-69
2021/04/09 10:06:26;;;;;;;7.60;4.83;;;13.30;99.90;;;;;;5096686;28;20489;-70
2021/04/09 10:08:52;;;;;;;7.50;5.30;;;13.40;99.90;;;;;;5094715;28;20475;-71
2021/04/09 10:11:19;;;;;;;8.20;5.10;;;12.80;99.90;;;;;;5096385;28;20409;-71
2021/04/09 10:13:46;;;;;;;19.00;6.13;;;13.10;99.90;;;;;;5096098;28;20274;-70
2021/04/09 10:16:17;;;;;;;13.83;6.00;;;12.80;99.90;;;;;;5096220;28;20408;-70
2021/04/09 10:18:53;;;;;;;9.93;4.90;;;13.70;99.90;;;;;;5095903;28;20438;-70
2021/04/09 10:21:27;;;;;;;6.60;4.93;;;13.90;99.90;;;;;;5096795;28;20422;-69
2021/04/09 10:24:14;;;;;;;8.73;5.30;;;14.10;99.90;;;;;;5094480;28;20985;-69
2021/04/09 10:26:49;;;;;;;8.60;4.77;;;13.60;99.90;;;;;;5096022;28;20443;-70
2021/04/09 10:29:22;;;;;;;9.23;5.60;;;13.80;99.90;;;;;;5096401;28;20389;-70
2021/04/09 10:31:49;;;;;;;6.97;4.87;;;14.30;99.90;;;;;;5095985;28;20400;-70
2021/04/09 10:34:19;;;;;;;10.00;5.47;;;14.60;99.90;;;;;;5095733;28;20429;-70
2021/04/09 10:36:45;;;;;;;8.23;4.80;;;14.90;99.90;;;;;;5095878;28;20402;-70
2021/04/09 10:39:14;;;;;;;7.40;4.70;;;14.10;99.90;;;;;;5096589;28;20427;-70
2021/04/09 10:41:43;;;;;;;8.40;4.47;;;14.10;99.90;;;;;;5096650;28;20436;-70
2021/04/09 10:44:17;;;;;;;9.97;4.67;;;13.80;99.90;;;;;;5096023;28;20449;-70
2021/04/09 10:46:45;;;;;;;7.20;4.80;;;14.20;99.90;;;;;;5096145;28;20388;-70
2021/04/09 10:49:16;;;;;;;9.70;5.20;;;14.60;99.90;;;;;;5095943;28;20428;-69
2021/04/09 10:51:45;;;;;;;10.87;4.50;;;14.90;99.90;;;;;;5094098;28;20395;-70
2021/04/09 10:54:16;;;;;;;6.10;4.80;;;14.70;99.90;;;;;;5095125;28;20950;-69
2021/04/09 10:56:48;;;;;;;7.20;4.20;;;14.10;99.90;;;;;;5094034;28;20425;-69
2021/04/09 10:59:14;;;;;;;6.83;4.83;;;14.00;99.90;;;;;;5095650;28;20390;-69
2021/04/09 11:01:40;;;;;;;7.27;4.00;;;14.20;99.90;;;;;;5096067;28;20487;-69
2021/04/09 11:04:06;;;;;;;5.30;3.80;;;14.40;99.90;;;;;;5095673;28;20286;-70
2021/04/09 11:06:32;;;;;;;5.37;3.93;;;14.20;99.90;;;;;;5096050;28;20784;-70
2021/04/09 11:09:06;;;;;;;8.23;4.40;;;14.60;99.90;;;;;;5094379;28;20510;-70
2021/04/09 11:11:39;;;;;;;13.87;4.60;;;15.30;99.90;;;;;;5095388;28;20162;-71
2021/04/09 11:14:10;;;;;;;8.77;5.70;;;15.10;99.90;;;;;;5095117;28;20505;-70
2021/04/09 11:16:49;;;;;;;10.77;4.33;;;15.20;99.90;;;;;;5095311;28;20435;-69
2021/04/09 11:19:35;;;;;;;7.73;4.30;;;14.50;99.90;;;;;;5094863;28;20888;-70
2021/04/09 11:22:05;;;;;;;5.83;4.33;;;14.90;99.90;;;;;;5094776;28;20379;-71
2021/04/09 11:24:36;;;;;;;6.97;4.50;;;15.00;99.90;;;;;;5094433;28;20998;-71
2021/04/09 11:27:16;;;;;;;14.47;5.77;;;15.80;99.90;;;;;;5094862;28;20406;-71
2021/04/09 11:29:42;;;;;;;8.10;4.73;;;15.20;99.90;;;;;;5094959;28;20391;-69
2021/04/09 11:32:19;;;;;;;7.13;4.53;;;15.20;99.90;;;;;;5094932;28;20804;-70
2021/04/09 11:34:53;;;;;;;12.03;4.00;;;15.60;99.90;;;;;;5094480;28;20167;-70
2021/04/09 11:37:21;;;;;;;5.47;4.37;;;15.30;99.90;;;;;;5094700;28;20499;-71
2021/04/09 11:39:58;;;;;;;5.53;4.37;;;16.10;99.90;;;;;;5094628;28;20451;-69
2021/04/09 11:42:34;;;;;;;8.30;4.03;;;16.30;99.90;;;;;;5094857;28;20393;-70
2021/04/09 11:45:11;;;;;;;9.30;4.43;;;15.80;99.90;;;;;;5093059;28;20455;-69
2021/04/09 11:47:40;;;;;;;6.83;4.03;;;15.50;99.90;;;;;;5094874;28;20434;-71
2021/04/09 11:50:08;;;;;;;11.17;3.30;;;16.00;99.90;;;;;;5094166;28;20405;-69
2021/04/09 11:52:52;;;;;;;14.73;5.70;;;16.30;99.90;;;;;;5094599;28;20461;-69
2021/04/09 11:55:19;;;;;;;9.20;4.93;;;16.30;99.90;;;;;;5094147;28;20405;-70
2021/04/09 11:57:45;;;;;;;5.27;3.50;;;16.90;99.90;;;;;;5094284;28;20431;-70
2021/04/09 12:00:40;;;;;;;5.67;3.70;;;16.00;99.90;;;;;;5094210;28;20408;-70
2021/04/09 12:03:09;;;;;;;6.67;4.43;;;16.10;99.90;;;;;;5076996;28;20272;-70
2021/04/09 12:05:38;;;;;;;13.83;3.77;;;15.60;99.90;;;;;;5094119;28;20487;-70
2021/04/09 12:08:05;;;;;;;9.03;3.77;;;15.60;99.90;;;;;;5094040;28;20429;-71
2021/04/09 12:10:32;;;;;;;7.93;5.00;;;15.70;99.90;;;;;;5093812;28;20862;-70
2021/04/09 12:12:59;;;;;;;5.50;3.53;;;16.30;99.90;;;;;;5094137;28;20445;-69
2021/04/09 12:15:26;;;;;;;9.10;4.73;;;16.40;99.90;;;;;;5093916;28;20426;-69
2021/04/09 12:17:53;;;;;;;8.30;3.43;;;16.00;99.90;;;;;;5094513;28;20530;-71
2021/04/09 12:20:22;;;;;;;7.67;4.30;;;15.40;99.90;;;;;;5093766;28;20795;-70
2021/04/09 12:22:48;;;;;;;5.87;4.27;;;15.40;99.90;;;;;;5094128;28;21068;-69
2021/04/09 12:25:15;;;;;;;8.40;4.47;;;16.10;99.90;;;;;;5093866;28;20512;-70
2021/04/09 12:27:41;;;;;;;5.77;4.07;;;16.80;99.90;;;;;;5093380;28;20397;-71
2021/04/09 12:30:09;;;;;;;6.90;4.33;;;16.00;99.90;;;;;;5093634;28;20427;-70
2021/04/09 12:32:35;;;;;;;9.10;5.13;;;15.80;99.90;;;;;;5093212;28;20617;-70
2021/04/09 12:35:01;;;;;;;13.77;4.90;;;16.30;99.90;;;;;;5093317;28;20413;-70
2021/04/09 12:37:27;;;;;;;14.60;12.30;;;16.70;99.90;;;;;;5093496;28;20171;-70
2021/04/09 12:39:53;;;;;;;9.40;4.97;;;16.80;99.90;;;;;;5093367;28;20925;-70
2021/04/09 12:42:19;;;;;;;12.70;4.13;;;16.50;99.90;;;;;;5093183;28;20592;-69
2021/04/09 12:44:46;;;;;;;6.97;4.10;;;16.40;99.90;;;;;;5093251;28;20452;-70
2021/04/09 12:47:11;;;;;;;10.17;4.60;;;16.20;99.90;;;;;;5093054;28;20406;-70
2021/04/09 12:49:37;;;;;;;10.77;4.27;;;16.60;99.90;;;;;;5092582;28;20479;-70
2021/04/09 12:52:04;;;;;;;7.57;4.70;;;16.00;99.90;;;;;;5093245;28;20164;-71
2021/04/09 12:54:30;;;;;;;8.67;4.83;;;16.40;99.90;;;;;;5093677;28;20421;-69
2021/04/09 12:56:56;;;;;;;7.67;4.63;;;16.00;99.90;;;;;;5093266;28;20918;-69